Time;durP1;ratioP1;P1;durP2;ratioP2;P2;SDS_P1;SDS_P2;PMS_P1;PMS_P2;Temp;Humidity;BMP_temperature;BMP_pressure;BME280_temperature;BME280_humidity;BME280_pressure;Samples;Min_cycle;Max_cycle;Signal;HPM_P1;HPM_P2
2023/04/02 00:00:13;;;;;;;2.58;1.25;;;;;;;;;;4929119;29;20195;-51
2023/04/02 00:02:48;;;;;;;2.13;1.25;;;;;;;;;;4932136;29;20163;-52
2023/04/02 00:05:49;;;;;;;4.20;0.85;;;;;;;;;;4932124;29;20047;-54
2023/04/02 00:08:19;;;;;;;2.03;1.00;;;;;;;;;;4931944;29;20043;-47
2023/04/02 00:10:49;;;;;;;1.15;0.80;;;;;;;;;;4931444;29;20052;-54
2023/04/02 00:13:22;;;;;;;1.60;0.90;;;;;;;;;;4932120;29;20457;-51
2023/04/02 00:15:51;;;;;;;2.25;0.82;;;;;;;;;;4930206;29;20044;-50
2023/04/02 00:18:21;;;;;;;0.65;0.50;;;;;;;;;;4931635;29;20432;-52
2023/04/02 00:20:51;;;;;;;1.58;0.90;;;;;;;;;;4931538;29;20047;-48
2023/04/02 00:23:19;;;;;;;1.25;0.90;;;;;;;;;;4930355;29;20048;-50
2023/04/02 00:25:48;;;;;;;2.83;0.77;;;;;;;;;;4932042;29;20053;-54
2023/04/02 00:28:18;;;;;;;1.92;0.82;;;;;;;;;;4936273;29;20052;-52
2023/04/02 00:30:47;;;;;;;1.67;0.93;;;;;;;;;;4929631;29;20067;-53
2023/04/02 00:33:16;;;;;;;1.90;1.10;;;;;;;;;;4936118;28;20043;-51
2023/04/02 00:35:44;;;;;;;1.48;0.90;;;;;;;;;;4935540;29;20044;-57
2023/04/02 00:38:17;;;;;;;1.95;1.00;;;;;;;;;;4947164;29;20370;-51
2023/04/02 00:40:48;;;;;;;1.20;0.90;;;;;;;;;;4915745;29;20459;-51
2023/04/02 00:43:21;;;;;;;0.90;0.70;;;;;;;;;;4931660;29;20090;-50
2023/04/02 00:45:54;;;;;;;3.97;1.05;;;;;;;;;;4929486;29;20400;-47
2023/04/02 00:48:36;;;;;;;2.10;0.98;;;;;;;;;;4934570;29;20055;-49
2023/04/02 00:51:10;;;;;;;0.73;0.73;;;;;;;;;;4934729;29;20055;-48
2023/04/02 00:53:39;;;;;;;1.77;0.80;;;;;;;;;;4934144;29;20040;-48
2023/04/02 00:56:12;;;;;;;0.82;0.70;;;;;;;;;;4934885;29;20047;-53
2023/04/02 00:58:44;;;;;;;1.20;0.80;;;;;;;;;;4935000;29;20110;-49
2023/04/02 01:01:17;;;;;;;1.15;0.85;;;;;;;;;;4935269;29;20040;-49
2023/04/02 01:03:56;;;;;;;1.52;0.95;;;;;;;;;;4933823;29;20051;-49
2023/04/02 01:06:29;;;;;;;2.65;0.80;;;;;;;;;;4933971;29;20142;-49
2023/04/02 01:09:03;;;;;;;1.60;0.70;;;;;;;;;;4930148;29;20114;-51
2023/04/02 01:11:38;;;;;;;1.02;0.70;;;;;;;;;;4935246;29;20491;-50
2023/04/02 01:14:12;;;;;;;0.77;0.68;;;;;;;;;;4934234;29;20252;-51
2023/04/02 01:16:45;;;;;;;0.82;0.70;;;;;;;;;;4933444;29;20511;-49
2023/04/02 01:19:25;;;;;;;0.98;0.80;;;;;;;;;;4934030;29;20059;-53
2023/04/02 01:21:57;;;;;;;1.48;0.90;;;;;;;;;;4934143;29;20129;-50
2023/04/02 01:24:29;;;;;;;1.17;0.90;;;;;;;;;;4934734;29;20519;-50
2023/04/02 01:26:58;;;;;;;0.70;0.70;;;;;;;;;;4934265;29;20054;-54
2023/04/02 01:29:29;;;;;;;1.10;0.75;;;;;;;;;;4933244;29;20066;-59
2023/04/02 01:31:58;;;;;;;1.30;0.88;;;;;;;;;;4934087;29;20054;-50
2023/04/02 01:34:27;;;;;;;1.10;0.77;;;;;;;;;;4932282;29;20051;-58
2023/04/02 01:37:13;;;;;;;1.05;0.95;;;;;;;;;;4932260;29;20494;-47
2023/04/02 01:39:51;;;;;;;2.17;0.70;;;;;;;;;;4934649;29;20043;-49
2023/04/02 01:42:21;;;;;;;1.50;0.85;;;;;;;;;;4932094;29;20063;-45
2023/04/02 01:44:51;;;;;;;0.98;0.90;;;;;;;;;;4933620;29;20039;-45
2023/04/02 01:47:20;;;;;;;1.17;0.93;;;;;;;;;;4932482;29;20043;-52
2023/04/02 01:49:48;;;;;;;1.38;0.77;;;;;;;;;;4942947;29;20436;-49
2023/04/02 01:52:17;;;;;;;2.08;1.65;;;;;;;;;;4932045;29;20056;-48
2023/04/02 01:54:47;;;;;;;1.10;0.93;;;;;;;;;;4929723;29;20044;-46
2023/04/02 01:57:15;;;;;;;1.05;0.88;;;;;;;;;;4932305;29;20118;-48
2023/04/02 01:59:44;;;;;;;1.30;0.88;;;;;;;;;;4932527;29;20044;-63
2023/04/02 02:02:14;;;;;;;0.50;0.50;;;;;;;;;;4934698;29;20053;-50
2023/04/02 02:04:44;;;;;;;1.60;0.57;;;;;;;;;;4930264;29;20607;-51
2023/04/02 02:07:14;;;;;;;0.68;0.68;;;;;;;;;;4932870;29;20658;-48
2023/04/02 02:09:45;;;;;;;1.50;0.70;;;;;;;;;;4931996;29;20404;-47
2023/04/02 02:12:14;;;;;;;2.85;0.70;;;;;;;;;;4932783;29;20051;-52
2023/04/02 02:14:46;;;;;;;1.10;0.80;;;;;;;;;;4933948;29;20051;-65
2023/04/02 02:17:16;;;;;;;1.05;0.70;;;;;;;;;;4933948;29;20138;-48
2023/04/02 02:19:46;;;;;;;1.10;0.77;;;;;;;;;;4932984;29;20040;-51
2023/04/02 02:22:18;;;;;;;0.95;0.70;;;;;;;;;;4927913;29;20139;-50
2023/04/02 02:24:46;;;;;;;0.70;0.70;;;;;;;;;;4931413;29;20035;-48
2023/04/02 02:27:42;;;;;;;0.50;0.50;;;;;;;;;;4932669;29;20051;-48
2023/04/02 02:30:14;;;;;;;1.42;0.70;;;;;;;;;;4923429;29;20063;-48
2023/04/02 02:32:46;;;;;;;1.33;0.75;;;;;;;;;;4932531;29;20043;-49
2023/04/02 02:35:18;;;;;;;1.05;0.90;;;;;;;;;;4929273;29;20043;-50
2023/04/02 02:37:51;;;;;;;1.50;0.75;;;;;;;;;;4931899;29;20074;-53
2023/04/02 02:40:21;;;;;;;1.23;0.77;;;;;;;;;;4935395;29;20078;-52
2023/04/02 02:42:51;;;;;;;0.65;0.60;;;;;;;;;;4932281;29;20556;-51
2023/04/02 02:45:22;;;;;;;0.85;0.70;;;;;;;;;;4933369;29;20051;-50
2023/04/02 02:47:52;;;;;;;0.98;0.70;;;;;;;;;;4931254;29;20048;-49
2023/04/02 02:50:23;;;;;;;1.08;0.70;;;;;;;;;;4932429;29;20051;-49
2023/04/02 02:52:53;;;;;;;0.60;0.60;;;;;;;;;;4931819;29;20075;-57
2023/04/02 02:55:22;;;;;;;1.60;1.02;;;;;;;;;;4926522;29;20130;-53
2023/04/02 02:58:07;;;;;;;1.20;0.70;;;;;;;;;;4931599;29;20055;-52
2023/04/02 03:00:45;;;;;;;0.90;0.60;;;;;;;;;;4931603;29;20062;-55
2023/04/02 03:03:17;;;;;;;2.15;0.75;;;;;;;;;;4931985;29;20085;-49
2023/04/02 03:05:52;;;;;;;0.88;0.80;;;;;;;;;;4931010;29;20059;-50
2023/04/02 03:08:25;;;;;;;0.70;0.70;;;;;;;;;;4931829;29;20437;-46
2023/04/02 03:10:55;;;;;;;0.88;0.70;;;;;;;;;;4931205;29;20454;-50
2023/04/02 03:13:27;;;;;;;0.90;0.60;;;;;;;;;;4932809;29;20103;-52
2023/04/02 03:15:58;;;;;;;0.95;0.70;;;;;;;;;;4947122;29;20071;-51
2023/04/02 03:18:34;;;;;;;1.00;0.90;;;;;;;;;;4932592;29;20054;-48
2023/04/02 03:21:06;;;;;;;1.13;0.95;;;;;;;;;;4943576;29;20459;-49
2023/04/02 03:23:36;;;;;;;0.60;0.60;;;;;;;;;;4931264;29;20460;-52
2023/04/02 03:26:06;;;;;;;0.82;0.82;;;;;;;;;;4930842;29;20139;-47
2023/04/02 03:28:37;;;;;;;2.33;0.68;;;;;;;;;;4927404;29;20161;-48
2023/04/02 03:31:08;;;;;;;1.08;0.65;;;;;;;;;;4932371;29;20099;-48
2023/04/02 03:33:40;;;;;;;5.32;0.90;;;;;;;;;;4937541;29;20410;-50
2023/04/02 03:36:14;;;;;;;0.80;0.80;;;;;;;;;;4932780;29;20059;-51
2023/04/02 03:38:44;;;;;;;3.72;0.90;;;;;;;;;;4931467;29;20036;-46
2023/04/02 03:41:17;;;;;;;0.88;0.70;;;;;;;;;;4931478;29;20059;-48
2023/04/02 03:43:46;;;;;;;0.85;0.60;;;;;;;;;;4930833;29;20051;-52
2023/04/02 03:46:21;;;;;;;1.17;0.80;;;;;;;;;;4931183;29;20047;-48
2023/04/02 03:48:52;;;;;;;1.13;0.80;;;;;;;;;;4929876;29;20462;-49
2023/04/02 03:51:23;;;;;;;0.82;0.80;;;;;;;;;;4931006;29;20044;-50
2023/04/02 03:53:52;;;;;;;0.95;0.60;;;;;;;;;;4930717;29;20056;-48
2023/04/02 03:56:23;;;;;;;0.80;0.80;;;;;;;;;;4930695;29;20052;-50
2023/04/02 03:58:53;;;;;;;1.00;0.93;;;;;;;;;;4946175;28;20047;-47
2023/04/02 04:01:26;;;;;;;1.20;1.10;;;;;;;;;;4930079;29;20103;-50
2023/04/02 04:03:57;;;;;;;1.02;0.93;;;;;;;;;;4930535;29;20055;-54
2023/04/02 04:06:26;;;;;;;2.83;1.00;;;;;;;;;;4931448;29;20106;-46
2023/04/02 04:08:57;;;;;;;3.08;1.10;;;;;;;;;;4930299;29;20496;-48
2023/04/02 04:11:27;;;;;;;2.83;1.40;;;;;;;;;;4931774;29;20098;-52
2023/04/02 04:13:57;;;;;;;0.75;0.75;;;;;;;;;;4930489;29;20067;-45
2023/04/02 04:16:26;;;;;;;1.55;0.70;;;;;;;;;;4931911;29;20078;-44
2023/04/02 04:19:02;;;;;;;1.25;0.95;;;;;;;;;;4931404;29;20106;-51
2023/04/02 04:21:37;;;;;;;2.83;1.73;;;;;;;;;;4930891;29;20432;-45
2023/04/02 04:24:16;;;;;;;1.55;1.15;;;;;;;;;;4946683;28;20404;-45
2023/04/02 04:26:48;;;;;;;1.48;0.80;;;;;;;;;;4945978;28;20396;-48
2023/04/02 04:29:26;;;;;;;1.27;0.80;;;;;;;;;;4930804;29;20055;-51
2023/04/02 04:31:55;;;;;;;1.63;0.90;;;;;;;;;;4929979;29;20051;-54
2023/04/02 04:34:35;;;;;;;2.15;0.80;;;;;;;;;;4930210;29;20040;-49
2023/04/02 04:37:06;;;;;;;1.50;1.13;;;;;;;;;;4930139;29;20600;-49
2023/04/02 04:39:41;;;;;;;1.05;1.00;;;;;;;;;;4930223;29;20478;-58
2023/04/02 04:42:14;;;;;;;2.15;1.13;;;;;;;;;;4930532;29;20396;-50
2023/04/02 04:44:45;;;;;;;1.45;1.13;;;;;;;;;;4943039;29;20140;-49
2023/04/02 04:47:17;;;;;;;1.10;1.00;;;;;;;;;;4940151;29;20055;-50
2023/04/02 04:49:52;;;;;;;1.23;1.05;;;;;;;;;;4929968;29;20432;-57
2023/04/02 04:52:21;;;;;;;1.45;1.17;;;;;;;;;;4930243;29;20138;-51
2023/04/02 04:54:50;;;;;;;1.20;0.98;;;;;;;;;;4930036;29;20051;-46
2023/04/02 04:57:29;;;;;;;4.03;3.03;;;;;;;;;;4929610;29;20047;-49
2023/04/02 05:00:05;;;;;;;1.90;1.30;;;;;;;;;;4929642;29;20099;-50
2023/04/02 05:02:38;;;;;;;1.52;1.23;;;;;;;;;;4930878;29;20091;-49
2023/04/02 05:05:16;;;;;;;2.88;1.30;;;;;;;;;;4930078;29;20051;-47
2023/04/02 05:07:49;;;;;;;1.60;1.10;;;;;;;;;;4930391;29;20492;-49
2023/04/02 05:10:19;;;;;;;1.38;1.08;;;;;;;;;;4931516;29;20445;-52
2023/04/02 05:12:53;;;;;;;1.33;1.23;;;;;;;;;;4933408;29;20055;-46
2023/04/02 05:15:24;;;;;;;1.75;1.33;;;;;;;;;;4932321;29;20055;-49
2023/04/02 05:17:54;;;;;;;2.15;1.05;;;;;;;;;;4934410;29;20430;-49
2023/04/02 05:20:26;;;;;;;4.00;1.08;;;;;;;;;;4934230;29;20502;-51
2023/04/02 05:22:58;;;;;;;1.20;1.10;;;;;;;;;;4933668;29;20078;-48
2023/04/02 05:25:27;;;;;;;2.42;1.23;;;;;;;;;;4934437;29;20044;-57
2023/04/02 05:28:04;;;;;;;1.63;1.33;;;;;;;;;;4928952;29;20043;-53
2023/04/02 05:30:45;;;;;;;1.10;1.00;;;;;;;;;;4934376;29;20138;-49
2023/04/02 05:33:17;;;;;;;2.72;1.40;;;;;;;;;;4933093;29;20558;-53
2023/04/02 05:35:48;;;;;;;1.95;1.42;;;;;;;;;;4933995;29;20153;-45
2023/04/02 05:38:19;;;;;;;1.58;1.10;;;;;;;;;;4928701;29;20047;-56
2023/04/02 05:40:50;;;;;;;1.10;1.00;;;;;;;;;;4931019;29;20071;-51
2023/04/02 05:43:20;;;;;;;1.70;1.10;;;;;;;;;;4934819;29;20126;-52
2023/04/02 05:45:53;;;;;;;1.65;1.25;;;;;;;;;;4933712;28;20043;-47
2023/04/02 05:48:26;;;;;;;2.42;1.50;;;;;;;;;;4934472;29;20095;-51
2023/04/02 05:50:58;;;;;;;1.55;1.25;;;;;;;;;;4932849;29;20078;-51
2023/04/02 05:53:33;;;;;;;1.98;1.60;;;;;;;;;;4931762;29;20051;-54
2023/04/02 05:56:03;;;;;;;1.58;1.10;;;;;;;;;;4949394;29;20063;-50
2023/04/02 05:58:36;;;;;;;2.30;1.88;;;;;;;;;;4933900;29;20051;-49
2023/04/02 06:01:32;;;;;;;1.42;1.30;;;;;;;;;;4932676;29;20122;-50
2023/04/02 06:04:08;;;;;;;2.25;1.67;;;;;;;;;;4932527;29;20048;-50
2023/04/02 06:06:48;;;;;;;1.98;1.40;;;;;;;;;;4933133;29;20075;-51
2023/04/02 06:09:19;;;;;;;1.38;1.27;;;;;;;;;;4935006;29;20051;-49
2023/04/02 06:11:52;;;;;;;1.73;1.23;;;;;;;;;;4931840;29;20401;-52
2023/04/02 06:14:20;;;;;;;2.10;1.40;;;;;;;;;;4933393;29;20055;-49
2023/04/02 06:16:49;;;;;;;2.85;1.73;;;;;;;;;;4932145;29;20420;-53
2023/04/02 06:19:20;;;;;;;2.28;1.40;;;;;;;;;;4944057;28;20419;-47
2023/04/02 06:21:52;;;;;;;2.78;1.65;;;;;;;;;;4933049;29;20447;-53
2023/04/02 06:24:25;;;;;;;1.55;1.45;;;;;;;;;;4931020;29;20055;-57
2023/04/02 06:26:56;;;;;;;2.08;1.70;;;;;;;;;;4947487;28;20078;-51
2023/04/02 06:29:28;;;;;;;2.55;1.50;;;;;;;;;;4932710;29;20064;-46
2023/04/02 06:31:58;;;;;;;3.42;1.60;;;;;;;;;;4930759;29;20055;-50
2023/04/02 06:34:27;;;;;;;2.00;1.63;;;;;;;;;;4933864;29;20038;-54
2023/04/02 06:37:02;;;;;;;2.40;1.58;;;;;;;;;;4913403;29;20519;-50
2023/04/02 06:39:33;;;;;;;2.72;1.80;;;;;;;;;;4938088;28;20114;-49
2023/04/02 06:42:10;;;;;;;2.53;1.65;;;;;;;;;;4938528;29;20051;-50
2023/04/02 06:45:00;;;;;;;2.47;1.80;;;;;;;;;;4946167;29;20150;-49
2023/04/02 06:47:51;;;;;;;3.25;1.70;;;;;;;;;;4949060;29;20046;-53
2023/04/02 06:50:44;;;;;;;1.75;1.38;;;;;;;;;;4942121;29;20458;-52
2023/04/02 06:53:19;;;;;;;2.10;1.60;;;;;;;;;;4946021;29;20078;-50
2023/04/02 06:55:50;;;;;;;2.53;1.35;;;;;;;;;;4963720;28;20047;-48
2023/04/02 06:58:23;;;;;;;3.70;2.40;;;;;;;;;;4947420;29;20070;-46
2023/04/02 07:00:52;;;;;;;4.75;1.70;;;;;;;;;;4925268;29;20576;-50
2023/04/02 07:03:30;;;;;;;2.50;1.48;;;;;;;;;;4932792;29;20499;-46
2023/04/02 07:06:06;;;;;;;2.63;1.63;;;;;;;;;;4949458;29;20054;-49
2023/04/02 07:08:36;;;;;;;2.90;1.60;;;;;;;;;;4962235;28;20047;-48
2023/04/02 07:11:04;;;;;;;2.88;1.60;;;;;;;;;;4938199;29;20047;-56
2023/04/02 07:13:32;;;;;;;1.67;1.58;;;;;;;;;;4942212;29;20046;-48
2023/04/02 07:16:01;;;;;;;2.53;1.75;;;;;;;;;;4946126;29;20052;-52
2023/04/02 07:18:30;;;;;;;1.83;1.60;;;;;;;;;;4933032;29;20063;-54
2023/04/02 07:21:00;;;;;;;2.38;1.70;;;;;;;;;;4930555;29;20047;-47
2023/04/02 07:23:29;;;;;;;3.40;1.63;;;;;;;;;;4929658;29;20055;-56
2023/04/02 07:25:58;;;;;;;9.75;5.88;;;;;;;;;;4932082;29;20047;-53
2023/04/02 07:28:27;;;;;;;2.85;1.70;;;;;;;;;;4932281;29;20066;-58
2023/04/02 07:30:55;;;;;;;2.63;1.65;;;;;;;;;;4931813;29;20039;-48
2023/04/02 07:33:23;;;;;;;3.50;1.73;;;;;;;;;;4932861;29;20067;-50
2023/04/02 07:35:52;;;;;;;1.80;1.40;;;;;;;;;;4931592;29;20047;-49
2023/04/02 07:38:20;;;;;;;1.63;1.48;;;;;;;;;;4932697;29;20079;-53
2023/04/02 07:40:49;;;;;;;4.68;1.77;;;;;;;;;;4930884;29;20102;-51
2023/04/02 07:43:18;;;;;;;2.38;1.60;;;;;;;;;;4931045;29;20055;-47
2023/04/02 07:45:46;;;;;;;1.42;1.30;;;;;;;;;;4930971;29;20048;-54
2023/04/02 07:48:15;;;;;;;1.90;1.63;;;;;;;;;;4931251;29;20051;-53
2023/04/02 07:50:43;;;;;;;2.55;1.70;;;;;;;;;;4943938;28;20456;-46
2023/04/02 07:53:16;;;;;;;2.30;1.70;;;;;;;;;;4947889;28;20369;-53
2023/04/02 07:55:44;;;;;;;2.97;2.15;;;;;;;;;;4932918;29;20047;-50
2023/04/02 07:58:12;;;;;;;2.35;1.50;;;;;;;;;;4932335;29;20093;-50
2023/04/02 08:00:42;;;;;;;2.78;1.80;;;;;;;;;;4931168;29;20048;-52
2023/04/02 08:03:12;;;;;;;2.25;1.95;;;;;;;;;;4931978;29;20197;-51
2023/04/02 08:05:40;;;;;;;1.63;1.48;;;;;;;;;;4929899;29;20452;-51
2023/04/02 08:08:08;;;;;;;2.47;2.00;;;;;;;;;;4925411;29;20047;-50
2023/04/02 08:10:36;;;;;;;1.65;1.50;;;;;;;;;;4933796;29;20099;-54
2023/04/02 08:13:04;;;;;;;2.42;1.45;;;;;;;;;;4933002;29;20048;-50
2023/04/02 08:15:32;;;;;;;2.25;1.83;;;;;;;;;;4931850;29;20044;-49
2023/04/02 08:18:02;;;;;;;2.20;1.73;;;;;;;;;;4931534;29;20653;-48
2023/04/02 08:20:30;;;;;;;5.15;2.20;;;;;;;;;;4947024;29;20402;-48
2023/04/02 08:22:59;;;;;;;2.22;2.03;;;;;;;;;;4948167;28;20035;-48
2023/04/02 08:25:27;;;;;;;3.05;2.00;;;;;;;;;;4925979;28;20035;-51
2023/04/02 08:27:56;;;;;;;2.83;2.10;;;;;;;;;;4926220;29;20592;-51
2023/04/02 08:30:24;;;;;;;2.95;2.10;;;;;;;;;;4936972;29;20043;-49
2023/04/02 08:32:52;;;;;;;2.90;1.90;;;;;;;;;;4931060;29;20060;-48
2023/04/02 08:35:22;;;;;;;2.97;2.17;;;;;;;;;;4930407;29;20063;-49
2023/04/02 08:37:50;;;;;;;3.30;2.42;;;;;;;;;;4931076;29;20404;-48
2023/04/02 08:40:22;;;;;;;4.05;3.17;;;;;;;;;;4931962;29;20052;-48
2023/04/02 08:42:58;;;;;;;2.42;2.22;;;;;;;;;;4931191;29;20225;-49
2023/04/02 08:45:31;;;;;;;4.15;2.65;;;;;;;;;;4931006;29;20048;-61
2023/04/02 08:48:01;;;;;;;3.30;2.15;;;;;;;;;;4927170;29;20075;-53
2023/04/02 08:50:33;;;;;;;4.35;2.28;;;;;;;;;;4935688;29;20134;-48
2023/04/02 08:53:02;;;;;;;3.05;1.95;;;;;;;;;;4934733;29;20118;-48
2023/04/02 08:55:34;;;;;;;3.25;2.03;;;;;;;;;;4931005;29;20063;-51
2023/04/02 08:58:08;;;;;;;5.18;2.47;;;;;;;;;;4933938;29;20398;-48
2023/04/02 09:00:37;;;;;;;3.75;2.35;;;;;;;;;;4933390;29;20510;-47
2023/04/02 09:03:08;;;;;;;2.42;2.00;;;;;;;;;;4934189;29;20048;-45
2023/04/02 09:05:39;;;;;;;3.38;2.38;;;;;;;;;;4934123;29;20047;-49
2023/04/02 09:08:15;;;;;;;2.30;2.00;;;;;;;;;;4933454;29;20055;-49
2023/04/02 09:10:45;;;;;;;2.25;2.05;;;;;;;;;;4932049;29;20048;-51
2023/04/02 09:13:17;;;;;;;2.60;1.60;;;;;;;;;;4929914;29;20050;-52
2023/04/02 09:15:45;;;;;;;2.17;1.80;;;;;;;;;;4934248;29;20424;-64
2023/04/02 09:18:14;;;;;;;3.33;2.10;;;;;;;;;;4935379;29;20051;-52
2023/04/02 09:20:43;;;;;;;5.97;2.00;;;;;;;;;;4935064;29;20123;-53
2023/04/02 09:23:15;;;;;;;3.78;2.78;;;;;;;;;;4933469;29;20057;-52
2023/04/02 09:25:45;;;;;;;3.35;2.05;;;;;;;;;;4934557;29;20127;-53
2023/04/02 09:28:28;;;;;;;2.30;1.85;;;;;;;;;;4923979;29;20047;-50
2023/04/02 09:30:59;;;;;;;3.30;2.20;;;;;;;;;;4947536;28;20058;-49
2023/04/02 09:33:40;;;;;;;2.28;2.00;;;;;;;;;;4946402;29;20057;-51
2023/04/02 09:36:17;;;;;;;5.70;2.47;;;;;;;;;;4934005;29;20047;-51
2023/04/02 09:38:57;;;;;;;5.80;2.40;;;;;;;;;;4933495;29;20142;-50
2023/04/02 09:41:27;;;;;;;2.80;2.33;;;;;;;;;;4935419;29;20095;-62
2023/04/02 09:44:09;;;;;;;3.55;2.22;;;;;;;;;;4936223;29;20040;-50
2023/04/02 09:46:37;;;;;;;3.67;2.20;;;;;;;;;;4935181;29;20051;-53
2023/04/02 09:49:05;;;;;;;2.13;1.92;;;;;;;;;;4949997;29;20460;-52
2023/04/02 09:51:35;;;;;;;4.05;1.90;;;;;;;;;;4935375;29;20360;-49
2023/04/02 09:54:08;;;;;;;3.97;1.95;;;;;;;;;;4933365;29;20128;-52
2023/04/02 09:56:37;;;;;;;2.60;1.92;;;;;;;;;;4934403;29;20048;-50
2023/04/02 09:59:07;;;;;;;2.75;2.00;;;;;;;;;;4932505;29;20040;-51
2023/04/02 10:01:35;;;;;;;4.15;2.78;;;;;;;;;;4933543;29;20044;-52
2023/04/02 10:04:06;;;;;;;3.47;2.60;;;;;;;;;;4933282;29;20500;-50
2023/04/02 10:06:37;;;;;;;2.67;2.00;;;;;;;;;;4933808;29;20555;-59
2023/04/02 10:09:19;;;;;;;5.18;1.85;;;;;;;;;;4933097;29;20055;-49
2023/04/02 10:11:47;;;;;;;2.15;1.80;;;;;;;;;;4932233;29;20136;-53
2023/04/02 10:14:17;;;;;;;3.72;3.17;;;;;;;;;;4931032;29;20127;-50
2023/04/02 10:16:48;;;;;;;3.33;2.38;;;;;;;;;;4933868;29;20051;-50
2023/04/02 10:19:22;;;;;;;2.38;1.88;;;;;;;;;;4936199;29;20114;-58
2023/04/02 10:21:52;;;;;;;2.50;2.05;;;;;;;;;;4934144;29;20043;-49
2023/04/02 10:24:20;;;;;;;2.70;1.90;;;;;;;;;;4933350;29;20485;-54
2023/04/02 10:26:51;;;;;;;4.30;2.03;;;;;;;;;;4933295;29;20052;-56
2023/04/02 10:29:40;;;;;;;2.78;1.92;;;;;;;;;;4933769;29;20127;-55
2023/04/02 10:32:11;;;;;;;3.35;1.88;;;;;;;;;;4889094;29;20432;-59
2023/04/02 10:34:43;;;;;;;1.83;1.73;;;;;;;;;;4915522;29;20364;-54
2023/04/02 10:37:27;;;;;;;2.45;1.92;;;;;;;;;;4949965;29;20051;-53
2023/04/02 10:39:57;;;;;;;3.38;2.17;;;;;;;;;;4932396;29;20055;-52
2023/04/02 10:42:26;;;;;;;3.15;2.53;;;;;;;;;;4931651;29;20051;-58
2023/04/02 10:44:57;;;;;;;2.67;2.00;;;;;;;;;;4929160;29;20047;-54
2023/04/02 10:47:30;;;;;;;2.72;2.30;;;;;;;;;;4931322;29;20102;-66
2023/04/02 10:50:05;;;;;;;3.63;2.00;;;;;;;;;;4931561;29;20070;-57
2023/04/02 10:52:38;;;;;;;3.15;2.50;;;;;;;;;;4931453;29;20400;-54
2023/04/02 10:55:13;;;;;;;2.67;2.25;;;;;;;;;;4928843;29;20123;-55
2023/04/02 10:57:42;;;;;;;3.53;2.90;;;;;;;;;;4929758;29;20083;-50
2023/04/02 11:00:17;;;;;;;2.58;2.25;;;;;;;;;;4943639;29;20393;-54
2023/04/02 11:02:49;;;;;;;5.28;2.60;;;;;;;;;;4930360;29;20047;-55
2023/04/02 11:05:19;;;;;;;3.15;2.50;;;;;;;;;;4929677;29;20051;-53
2023/04/02 11:07:57;;;;;;;5.53;2.10;;;;;;;;;;4941447;29;20139;-54
2023/04/02 11:10:26;;;;;;;4.95;2.40;;;;;;;;;;4911831;29;20051;-61
2023/04/02 11:12:56;;;;;;;3.10;2.20;;;;;;;;;;4911707;29;20063;-49
2023/04/02 11:15:24;;;;;;;3.05;2.20;;;;;;;;;;4929974;29;20126;-57
2023/04/02 11:17:53;;;;;;;2.88;2.20;;;;;;;;;;4930234;29;20111;-59
2023/04/02 11:20:42;;;;;;;3.10;2.28;;;;;;;;;;4930878;29;20071;-56
2023/04/02 11:23:13;;;;;;;3.28;2.08;;;;;;;;;;4931297;29;20070;-56
2023/04/02 11:25:41;;;;;;;5.57;2.05;;;;;;;;;;4929327;29;20421;-53
2023/04/02 11:28:13;;;;;;;3.80;1.80;;;;;;;;;;4930659;29;20154;-54
2023/04/02 11:30:42;;;;;;;2.78;1.98;;;;;;;;;;4929137;29;20440;-54
2023/04/02 11:33:24;;;;;;;3.95;1.55;;;;;;;;;;4932533;29;20059;-57
2023/04/02 11:36:05;;;;;;;1.58;1.45;;;;;;;;;;4929906;29;20226;-56
2023/04/02 11:38:52;;;;;;;1.63;1.40;;;;;;;;;;4930664;29;20056;-55
2023/04/02 11:41:39;;;;;;;1.48;1.38;;;;;;;;;;4930185;29;20237;-53
2023/04/02 11:44:21;;;;;;;2.05;1.48;;;;;;;;;;4928051;29;20106;-53
2023/04/02 11:46:50;;;;;;;1.95;1.50;;;;;;;;;;4928282;29;20515;-54
2023/04/02 11:49:34;;;;;;;2.15;1.73;;;;;;;;;;4928552;29;20052;-52
2023/04/02 11:52:03;;;;;;;3.20;1.80;;;;;;;;;;4924671;29;20114;-59
2023/04/02 11:54:39;;;;;;;9.02;6.22;;;;;;;;;;4919491;29;20047;-51
2023/04/02 11:57:10;;;;;;;2.28;1.80;;;;;;;;;;4944187;28;20086;-56
2023/04/02 11:59:45;;;;;;;3.25;1.80;;;;;;;;;;4930802;29;20384;-55
2023/04/02 12:02:18;;;;;;;2.03;1.67;;;;;;;;;;4929946;29;20484;-53
2023/04/02 12:05:04;;;;;;;2.75;1.80;;;;;;;;;;4941984;29;20052;-59
2023/04/02 12:07:50;;;;;;;2.53;1.95;;;;;;;;;;4931041;29;20044;-50
2023/04/02 12:10:20;;;;;;;3.13;1.55;;;;;;;;;;4932184;29;20054;-55
2023/04/02 12:12:49;;;;;;;1.92;1.73;;;;;;;;;;4929171;29;20147;-53
2023/04/02 12:15:38;;;;;;;3.38;1.35;;;;;;;;;;4932773;29;20048;-59
2023/04/02 12:18:11;;;;;;;1.75;1.55;;;;;;;;;;4931558;29;20063;-55
2023/04/02 12:20:39;;;;;;;2.53;1.20;;;;;;;;;;4915346;29;20052;-56
2023/04/02 12:23:15;;;;;;;1.00;1.00;;;;;;;;;;4932236;29;20395;-51
2023/04/02 12:25:45;;;;;;;1.45;1.13;;;;;;;;;;4931525;29;20084;-64
2023/04/02 12:28:16;;;;;;;2.08;1.77;;;;;;;;;;4919255;29;20147;-56
2023/04/02 12:30:46;;;;;;;1.20;1.10;;;;;;;;;;4917112;29;20079;-58
2023/04/02 12:33:15;;;;;;;1.17;1.08;;;;;;;;;;4931833;29;20044;-56
2023/04/02 12:35:44;;;;;;;2.97;0.95;;;;;;;;;;4946118;29;20467;-63
2023/04/02 12:38:19;;;;;;;1.88;1.05;;;;;;;;;;4930869;29;20044;-52
2023/04/02 12:40:54;;;;;;;4.90;1.27;;;;;;;;;;4932024;29;20122;-54
2023/04/02 12:43:26;;;;;;;2.10;1.60;;;;;;;;;;4932371;29;20107;-55
2023/04/02 12:45:57;;;;;;;1.67;1.38;;;;;;;;;;4932696;29;20157;-51
2023/04/02 12:48:28;;;;;;;2.53;1.58;;;;;;;;;;4947482;29;20130;-52
2023/04/02 12:50:56;;;;;;;3.60;2.15;;;;;;;;;;4950695;28;20048;-54
2023/04/02 12:53:26;;;;;;;2.55;1.35;;;;;;;;;;4938441;28;20052;-55
2023/04/02 12:55:54;;;;;;;4.75;1.40;;;;;;;;;;4932144;29;20055;-56
2023/04/02 12:58:25;;;;;;;1.42;1.33;;;;;;;;;;4932048;29;20044;-52
2023/04/02 13:00:53;;;;;;;1.85;1.35;;;;;;;;;;4928515;29;20032;-62
2023/04/02 13:03:22;;;;;;;3.08;1.75;;;;;;;;;;4923737;29;20558;-54
2023/04/02 13:05:52;;;;;;;1.83;1.30;;;;;;;;;;4931217;29;20047;-58
2023/04/02 13:08:22;;;;;;;3.05;1.52;;;;;;;;;;4932822;29;20180;-54
2023/04/02 13:10:55;;;;;;;5.63;1.70;;;;;;;;;;4931440;29;20464;-55
2023/04/02 13:13:27;;;;;;;2.35;1.50;;;;;;;;;;4943838;29;20118;-55
2023/04/02 13:16:02;;;;;;;1.33;1.23;;;;;;;;;;4965487;28;20414;-53
2023/04/02 13:18:39;;;;;;;1.77;1.40;;;;;;;;;;4951253;28;20455;-56
2023/04/02 13:21:25;;;;;;;1.77;1.65;;;;;;;;;;4944489;29;20095;-54
2023/04/02 13:23:55;;;;;;;1.70;1.23;;;;;;;;;;4931205;29;20131;-56
2023/04/02 13:26:24;;;;;;;7.32;1.33;;;;;;;;;;4931733;29;20051;-53
2023/04/02 13:28:59;;;;;;;3.67;1.70;;;;;;;;;;4932040;29;20118;-52
2023/04/02 13:31:28;;;;;;;1.60;1.50;;;;;;;;;;4947464;28;20478;-51
2023/04/02 13:33:57;;;;;;;2.20;1.30;;;;;;;;;;4934790;29;20054;-50
2023/04/02 13:36:27;;;;;;;1.30;1.20;;;;;;;;;;4935893;29;20488;-52
2023/04/02 13:38:56;;;;;;;2.60;1.23;;;;;;;;;;4948757;29;20056;-50
2023/04/02 13:41:26;;;;;;;1.52;1.27;;;;;;;;;;4933670;29;20158;-54
2023/04/02 13:43:54;;;;;;;2.30;1.40;;;;;;;;;;4934655;29;20059;-52
2023/04/02 13:46:23;;;;;;;1.42;1.33;;;;;;;;;;4933779;29;20056;-54
2023/04/02 13:48:51;;;;;;;1.85;1.30;;;;;;;;;;4949048;29;20059;-54
2023/04/02 13:51:22;;;;;;;2.00;1.10;;;;;;;;;;4932746;29;20048;-54
2023/04/02 13:53:52;;;;;;;3.05;1.65;;;;;;;;;;4934226;29;20043;-52
2023/04/02 13:56:21;;;;;;;0.80;0.80;;;;;;;;;;4934629;29;20047;-51
2023/04/02 13:58:50;;;;;;;0.95;0.88;;;;;;;;;;4929896;29;20043;-54
2023/04/02 14:01:18;;;;;;;4.43;1.05;;;;;;;;;;4934201;29;20047;-55
2023/04/02 14:03:46;;;;;;;0.98;0.90;;;;;;;;;;4932063;29;20047;-53
2023/04/02 14:06:20;;;;;;;0.70;0.70;;;;;;;;;;4934337;29;20609;-50
2023/04/02 14:08:54;;;;;;;0.80;0.80;;;;;;;;;;4948343;28;20050;-55
2023/04/02 14:11:27;;;;;;;1.27;0.80;;;;;;;;;;4934263;29;20143;-53
2023/04/02 14:14:16;;;;;;;1.10;1.00;;;;;;;;;;4934125;29;20047;-51
2023/04/02 14:16:51;;;;;;;2.80;1.08;;;;;;;;;;4929335;29;20055;-53
2023/04/02 14:19:30;;;;;;;1.45;1.17;;;;;;;;;;4934264;29;20048;-53
2023/04/02 14:22:02;;;;;;;1.48;1.20;;;;;;;;;;4933490;29;20142;-56
2023/04/02 14:24:34;;;;;;;1.17;1.00;;;;;;;;;;4933867;29;20059;-54
2023/04/02 14:27:12;;;;;;;4.18;1.17;;;;;;;;;;4935396;29;20051;-54
2023/04/02 14:29:43;;;;;;;1.30;0.90;;;;;;;;;;4948546;28;20091;-58
2023/04/02 14:32:14;;;;;;;1.10;1.00;;;;;;;;;;4933335;29;20138;-57
2023/04/02 14:34:47;;;;;;;0.88;0.88;;;;;;;;;;4932915;29;20412;-56
2023/04/02 14:37:20;;;;;;;4.43;1.23;;;;;;;;;;4925864;29;20054;-54
2023/04/02 14:39:56;;;;;;;1.15;0.82;;;;;;;;;;4914278;29;20490;-53
2023/04/02 14:42:28;;;;;;;1.80;1.70;;;;;;;;;;4916095;29;20040;-55
2023/04/02 14:44:59;;;;;;;1.80;1.70;;;;;;;;;;4920339;29;20052;-50
2023/04/02 14:47:29;;;;;;;1.85;1.60;;;;;;;;;;4932942;29;20055;-52
2023/04/02 14:49:59;;;;;;;3.83;1.90;;;;;;;;;;4925068;29;20048;-51
2023/04/02 14:52:28;;;;;;;2.15;1.70;;;;;;;;;;4913825;29;20461;-56
2023/04/02 14:55:01;;;;;;;3.58;1.40;;;;;;;;;;4929641;29;20095;-53
2023/04/02 14:57:30;;;;;;;5.18;1.45;;;;;;;;;;4931751;29;20048;-59
2023/04/02 15:00:02;;;;;;;3.20;1.70;;;;;;;;;;4931781;29;20055;-55
2023/04/02 15:02:37;;;;;;;2.25;1.80;;;;;;;;;;4933214;29;20047;-56
2023/04/02 15:05:11;;;;;;;1.40;1.30;;;;;;;;;;4932483;29;20056;-55
2023/04/02 15:07:41;;;;;;;2.08;1.42;;;;;;;;;;4933246;29;20475;-50
2023/04/02 15:10:17;;;;;;;4.65;1.73;;;;;;;;;;4931738;29;20051;-51
2023/04/02 15:12:45;;;;;;;2.25;1.55;;;;;;;;;;4931536;29;20062;-52